sensor_id;sensor_type;location;lat;lon;timestamp;pressure;altitude;pressure_sealevel;temperature;humidity
56052;BME280;41919;42.648;23.384;2023-04-25T00:00:49;93867.25;;;11.98;100.00
56052;BME280;41919;42.648;23.384;2023-04-25T00:03:17;93864.28;;;11.94;100.00
56052;BME280;41919;42.648;23.384;2023-04-25T00:05:43;93794.75;;;11.63;100.00
56052;BME280;41919;42.648;23.384;2023-04-25T00:08:09;93835.81;;;11.86;100.00
56052;BME280;41919;42.648;23.384;2023-04-25T00:10:34;93812.28;;;11.51;100.00
56052;BME280;41919;42.648;23.384;2023-04-25T00:13:00;93823.75;;;11.50;100.00
56052;BME280;41919;42.648;23.384;2023-04-25T00:15:28;93774.69;;;11.10;100.00
56052;BME280;41919;42.648;23.384;2023-04-25T00:17:56;93803.69;;;11.08;100.00
56052;BME280;41919;42.648;23.384;2023-04-25T00:20:22;93779.38;;;10.66;100.00
56052;BME280;41919;42.648;23.384;2023-04-25T00:22:49;93839.69;;;10.64;100.00
56052;BME280;41919;42.648;23.384;2023-04-25T00:25:14;93811.97;;;10.33;100.00
56052;BME280;41919;42.648;23.384;2023-04-25T00:27:40;93598.47;;;8.89;100.00
56052;BME280;41919;42.648;23.384;2023-04-25T00:30:07;93805.16;;;10.13;100.00
56052;BME280;41919;42.648;23.384;2023-04-25T00:32:33;93795.22;;;10.04;100.00
56052;BME280;41919;42.648;23.384;2023-04-25T00:34:58;93740.84;;;9.64;100.00
56052;BME280;41919;42.648;23.384;2023-04-25T00:37:24;93741.78;;;9.51;100.00
56052;BME280;41919;42.648;23.384;2023-04-25T00:39:50;93798.75;;;9.91;100.00
56052;BME280;41919;42.648;23.384;2023-04-25T00:42:16;93814.00;;;9.94;100.00
56052;BME280;41919;42.648;23.384;2023-04-25T00:44:42;93802.41;;;9.90;100.00
56052;BME280;41919;42.648;23.384;2023-04-25T00:47:08;93764.03;;;9.72;100.00
56052;BME280;41919;42.648;23.384;2023-04-25T00:49:34;93784.25;;;9.95;100.00
56052;BME280;41919;42.648;23.384;2023-04-25T00:51:59;93787.44;;;9.97;100.00
56052;BME280;41919;42.648;23.384;2023-04-25T00:54:25;93738.31;;;9.75;100.00
56052;BME280;41919;42.648;23.384;2023-04-25T00:56:50;93772.97;;;10.01;100.00
56052;BME280;41919;42.648;23.384;2023-04-25T00:59:16;93769.84;;;9.92;100.00
56052;BME280;41919;42.648;23.384;2023-04-25T01:01:43;93754.97;;;9.93;100.00
56052;BME280;41919;42.648;23.384;2023-04-25T01:04:09;93760.19;;;9.93;100.00
56052;BME280;41919;42.648;23.384;2023-04-25T01:06:35;93766.88;;;10.07;100.00
56052;BME280;41919;42.648;23.384;2023-04-25T01:09:01;93774.06;;;10.24;100.00
56052;BME280;41919;42.648;23.384;2023-04-25T01:11:28;93769.53;;;10.37;100.00
56052;BME280;41919;42.648;23.384;2023-04-25T01:13:53;93681.38;;;10.02;100.00
56052;BME280;41919;42.648;23.384;2023-04-25T01:16:19;93760.66;;;10.69;100.00
56052;BME280;41919;42.648;23.384;2023-04-25T01:18:44;93741.91;;;10.72;100.00
56052;BME280;41919;42.648;23.384;2023-04-25T01:21:11;93723.03;;;10.70;100.00
56052;BME280;41919;42.648;23.384;2023-04-25T01:23:39;93758.78;;;10.99;100.00
56052;BME280;41919;42.648;23.384;2023-04-25T01:26:06;93755.38;;;11.11;100.00
56052;BME280;41919;42.648;23.384;2023-04-25T01:28:33;93736.84;;;11.01;100.00
56052;BME280;41919;42.648;23.384;2023-04-25T01:30:58;93743.09;;;10.99;100.00
56052;BME280;41919;42.648;23.384;2023-04-25T01:33:24;93740.69;;;10.98;100.00
56052;BME280;41919;42.648;23.384;2023-04-25T01:35:50;93724.09;;;11.04;100.00
56052;BME280;41919;42.648;23.384;2023-04-25T01:38:15;93743.44;;;11.15;100.00
56052;BME280;41919;42.648;23.384;2023-04-25T01:40:41;93689.41;;;10.73;100.00
56052;BME280;41919;42.648;23.384;2023-04-25T01:43:08;93742.09;;;11.12;100.00
56052;BME280;41919;42.648;23.384;2023-04-25T01:45:37;93756.75;;;11.25;100.00
56052;BME280;41919;42.648;23.384;2023-04-25T01:48:05;93754.47;;;11.29;100.00
56052;BME280;41919;42.648;23.384;2023-04-25T01:50:31;93762.78;;;11.26;100.00
56052;BME280;41919;42.648;23.384;2023-04-25T01:52:56;93761.53;;;11.28;100.00
56052;BME280;41919;42.648;23.384;2023-04-25T01:55:22;93754.81;;;11.21;100.00
56052;BME280;41919;42.648;23.384;2023-04-25T01:57:47;93746.19;;;11.20;100.00
56052;BME280;41919;42.648;23.384;2023-04-25T02:00:13;93741.63;;;11.15;100.00
56052;BME280;41919;42.648;23.384;2023-04-25T02:02:38;93762.22;;;11.35;100.00
56052;BME280;41919;42.648;23.384;2023-04-25T02:05:04;93755.59;;;11.45;100.00
56052;BME280;41919;42.648;23.384;2023-04-25T02:07:30;93744.59;;;11.31;100.00
56052;BME280;41919;42.648;23.384;2023-04-25T02:09:55;93713.31;;;11.24;100.00
56052;BME280;41919;42.648;23.384;2023-04-25T02:12:21;93722.66;;;11.20;100.00
56052;BME280;41919;42.648;23.384;2023-04-25T02:14:46;93759.13;;;11.15;100.00
56052;BME280;41919;42.648;23.384;2023-04-25T02:17:12;93735.47;;;11.10;100.00
56052;BME280;41919;42.648;23.384;2023-04-25T02:19:38;93741.75;;;11.09;100.00
56052;BME280;41919;42.648;23.384;2023-04-25T02:22:03;93741.75;;;11.09;100.00
56052;BME280;41919;42.648;23.384;2023-04-25T02:24:29;93735.69;;;11.08;100.00
56052;BME280;41919;42.648;23.384;2023-04-25T02:26:54;93732.41;;;11.13;100.00
56052;BME280;41919;42.648;23.384;2023-04-25T02:29:21;93666.25;;;10.77;100.00
56052;BME280;41919;42.648;23.384;2023-04-25T02:31:46;93657.84;;;10.75;100.00
56052;BME280;41919;42.648;23.384;2023-04-25T02:34:12;93716.72;;;11.13;100.00
56052;BME280;41919;42.648;23.384;2023-04-25T02:36:37;93622.81;;;10.52;100.00
56052;BME280;41919;42.648;23.384;2023-04-25T02:39:03;93700.00;;;11.14;100.00
56052;BME280;41919;42.648;23.384;2023-04-25T02:41:28;93709.56;;;11.20;100.00
56052;BME280;41919;42.648;23.384;2023-04-25T02:43:54;93685.22;;;11.08;100.00
56052;BME280;41919;42.648;23.384;2023-04-25T02:46:19;93646.47;;;10.81;100.00
56052;BME280;41919;42.648;23.384;2023-04-25T02:48:45;93714.47;;;11.28;100.00
56052;BME280;41919;42.648;23.384;2023-04-25T02:51:10;93708.78;;;11.31;100.00
56052;BME280;41919;42.648;23.384;2023-04-25T02:53:36;93706.50;;;11.23;100.00
56052;BME280;41919;42.648;23.384;2023-04-25T02:56:01;93712.28;;;10.90;100.00
56052;BME280;41919;42.648;23.384;2023-04-25T02:58:27;93646.69;;;10.68;100.00
56052;BME280;41919;42.648;23.384;2023-04-25T03:00:52;93702.97;;;10.94;100.00
56052;BME280;41919;42.648;23.384;2023-04-25T03:03:18;93643.97;;;10.63;100.00
56052;BME280;41919;42.648;23.384;2023-04-25T03:05:47;93687.03;;;10.72;100.00
56052;BME280;41919;42.648;23.384;2023-04-25T03:08:12;93692.72;;;10.81;100.00
56052;BME280;41919;42.648;23.384;2023-04-25T03:10:38;93642.25;;;10.56;100.00
56052;BME280;41919;42.648;23.384;2023-04-25T03:13:04;93631.13;;;10.61;100.00
56052;BME280;41919;42.648;23.384;2023-04-25T03:15:29;93685.34;;;11.01;100.00
56052;BME280;41919;42.648;23.384;2023-04-25T03:17:56;93688.41;;;11.10;100.00
56052;BME280;41919;42.648;23.384;2023-04-25T03:20:21;93693.75;;;11.15;100.00
56052;BME280;41919;42.648;23.384;2023-04-25T03:22:47;93621.47;;;10.62;100.00
56052;BME280;41919;42.648;23.384;2023-04-25T03:25:12;93708.31;;;11.11;100.00
56052;BME280;41919;42.648;23.384;2023-04-25T03:27:38;93702.88;;;11.12;100.00
56052;BME280;41919;42.648;23.384;2023-04-25T03:30:04;93679.22;;;11.07;100.00
56052;BME280;41919;42.648;23.384;2023-04-25T03:32:29;93629.31;;;10.73;100.00
56052;BME280;41919;42.648;23.384;2023-04-25T03:34:55;93654.66;;;10.96;100.00
56052;BME280;41919;42.648;23.384;2023-04-25T03:37:21;93696.94;;;11.17;100.00
56052;BME280;41919;42.648;23.384;2023-04-25T03:39:46;93631.91;;;10.85;100.00
56052;BME280;41919;42.648;23.384;2023-04-25T03:42:11;93670.34;;;11.20;100.00
56052;BME280;41919;42.648;23.384;2023-04-25T03:44:37;93694.31;;;11.29;100.00
56052;BME280;41919;42.648;23.384;2023-04-25T03:47:02;93636.25;;;10.91;100.00
56052;BME280;41919;42.648;23.384;2023-04-25T03:49:28;93661.47;;;10.74;100.00
56052;BME280;41919;42.648;23.384;2023-04-25T03:51:53;93672.94;;;10.85;100.00
56052;BME280;41919;42.648;23.384;2023-04-25T03:54:18;93697.41;;;11.26;100.00
56052;BME280;41919;42.648;23.384;2023-04-25T03:56:44;93683.31;;;11.15;100.00
56052;BME280;41919;42.648;23.384;2023-04-25T03:59:09;93635.78;;;11.18;100.00
56052;BME280;41919;42.648;23.384;2023-04-25T04:01:35;93634.31;;;11.22;100.00
56052;BME280;41919;42.648;23.384;2023-04-25T04:04:00;93682.31;;;11.68;100.00
56052;BME280;41919;42.648;23.384;2023-04-25T04:06:26;93685.69;;;11.81;100.00
56052;BME280;41919;42.648;23.384;2023-04-25T04:08:51;93645.13;;;11.66;100.00
56052;BME280;41919;42.648;23.384;2023-04-25T04:11:17;93635.50;;;11.84;100.00
56052;BME280;41919;42.648;23.384;2023-04-25T04:13:42;93628.97;;;11.98;100.00
56052;BME280;41919;42.648;23.384;2023-04-25T04:16:08;93698.78;;;12.67;100.00
56052;BME280;41919;42.648;23.384;2023-04-25T04:18:33;93539.69;;;11.54;100.00
56052;BME280;41919;42.648;23.384;2023-04-25T04:20:59;93645.53;;;12.32;100.00
56052;BME280;41919;42.648;23.384;2023-04-25T04:23:25;93711.19;;;12.71;100.00
56052;BME280;41919;42.648;23.384;2023-04-25T04:25:52;93702.16;;;12.79;100.00
56052;BME280;41919;42.648;23.384;2023-04-25T04:28:19;93703.06;;;12.73;100.00
56052;BME280;41919;42.648;23.384;2023-04-25T04:30:45;93711.72;;;12.57;100.00
56052;BME280;41919;42.648;23.384;2023-04-25T04:33:11;93709.53;;;12.36;100.00
56052;BME280;41919;42.648;23.384;2023-04-25T04:35:37;93707.47;;;12.22;100.00
56052;BME280;41919;42.648;23.384;2023-04-25T04:38:02;93699.72;;;12.15;100.00
56052;BME280;41919;42.648;23.384;2023-04-25T04:40:28;93691.41;;;11.77;100.00
56052;BME280;41919;42.648;23.384;2023-04-25T04:42:55;93698.69;;;11.75;100.00
56052;BME280;41919;42.648;23.384;2023-04-25T04:45:23;93698.22;;;11.90;100.00
56052;BME280;41919;42.648;23.384;2023-04-25T04:47:49;93696.16;;;11.92;100.00
56052;BME280;41919;42.648;23.384;2023-04-25T04:50:14;93702.84;;;12.00;100.00
56052;BME280;41919;42.648;23.384;2023-04-25T04:52:41;93643.38;;;11.43;100.00
56052;BME280;41919;42.648;23.384;2023-04-25T04:55:08;93695.22;;;11.87;100.00
56052;BME280;41919;42.648;23.384;2023-04-25T04:57:34;93649.78;;;11.64;100.00
56052;BME280;41919;42.648;23.384;2023-04-25T05:00:00;93684.91;;;11.80;100.00
56052;BME280;41919;42.648;23.384;2023-04-25T05:02:26;93706.41;;;11.94;100.00
56052;BME280;41919;42.648;23.384;2023-04-25T05:04:52;93708.88;;;11.89;100.00
56052;BME280;41919;42.648;23.384;2023-04-25T05:07:18;93721.00;;;11.90;100.00
56052;BME280;41919;42.648;23.384;2023-04-25T05:09:44;93697.34;;;11.61;100.00
56052;BME280;41919;42.648;23.384;2023-04-25T05:12:09;93671.00;;;11.27;100.00
56052;BME280;41919;42.648;23.384;2023-04-25T05:14:35;93713.19;;;11.31;100.00
56052;BME280;41919;42.648;23.384;2023-04-25T05:17:01;93734.13;;;11.31;100.00
56052;BME280;41919;42.648;23.384;2023-04-25T05:19:26;93707.97;;;11.07;100.00
56052;BME280;41919;42.648;23.384;2023-04-25T05:21:52;93682.75;;;11.01;100.00
56052;BME280;41919;42.648;23.384;2023-04-25T05:24:17;93737.28;;;11.45;100.00
56052;BME280;41919;42.648;23.384;2023-04-25T05:26:43;93730.47;;;11.55;100.00
56052;BME280;41919;42.648;23.384;2023-04-25T05:29:08;93739.22;;;11.61;100.00
56052;BME280;41919;42.648;23.384;2023-04-25T05:31:34;93676.72;;;11.24;100.00
56052;BME280;41919;42.648;23.384;2023-04-25T05:33:59;93723.66;;;11.54;100.00
56052;BME280;41919;42.648;23.384;2023-04-25T05:36:24;93666.56;;;11.16;100.00
56052;BME280;41919;42.648;23.384;2023-04-25T05:38:51;93725.94;;;11.51;100.00
56052;BME280;41919;42.648;23.384;2023-04-25T05:41:16;93741.06;;;11.61;100.00
56052;BME280;41919;42.648;23.384;2023-04-25T05:43:42;93631.25;;;11.02;100.00
56052;BME280;41919;42.648;23.384;2023-04-25T05:46:12;93718.41;;;11.66;100.00
56052;BME280;41919;42.648;23.384;2023-04-25T05:48:38;93666.44;;;11.34;100.00
56052;BME280;41919;42.648;23.384;2023-04-25T05:51:03;93676.00;;;11.41;100.00
56052;BME280;41919;42.648;23.384;2023-04-25T05:53:29;93726.44;;;11.76;100.00
56052;BME280;41919;42.648;23.384;2023-04-25T05:55:54;93742.28;;;11.93;100.00
56052;BME280;41919;42.648;23.384;2023-04-25T05:58:20;93696.66;;;11.77;100.00
56052;BME280;41919;42.648;23.384;2023-04-25T06:00:45;93677.94;;;11.86;100.00
56052;BME280;41919;42.648;23.384;2023-04-25T06:03:11;93739.53;;;12.29;100.00
56052;BME280;41919;42.648;23.384;2023-04-25T06:05:40;93683.88;;;11.93;100.00
56052;BME280;41919;42.648;23.384;2023-04-25T06:08:06;93707.91;;;12.19;100.00
56052;BME280;41919;42.648;23.384;2023-04-25T06:10:31;93669.00;;;11.58;100.00
56052;BME280;41919;42.648;23.384;2023-04-25T06:12:57;93694.09;;;11.94;100.00
56052;BME280;41919;42.648;23.384;2023-04-25T06:15:22;93690.09;;;12.04;100.00
56052;BME280;41919;42.648;23.384;2023-04-25T06:17:48;93721.00;;;12.47;100.00
56052;BME280;41919;42.648;23.384;2023-04-25T06:20:14;93740.09;;;12.77;100.00
56052;BME280;41919;42.648;23.384;2023-04-25T06:22:39;93725.03;;;12.84;100.00
56052;BME280;41919;42.648;23.384;2023-04-25T06:25:05;93740.03;;;13.05;100.00
56052;BME280;41919;42.648;23.384;2023-04-25T06:27:32;93712.47;;;13.03;100.00
56052;BME280;41919;42.648;23.384;2023-04-25T06:29:58;93744.09;;;13.13;100.00
56052;BME280;41919;42.648;23.384;2023-04-25T06:32:23;93703.25;;;12.83;100.00
56052;BME280;41919;42.648;23.384;2023-04-25T06:34:49;93680.84;;;12.59;100.00
56052;BME280;41919;42.648;23.384;2023-04-25T06:37:14;93694.81;;;12.98;100.00
56052;BME280;41919;42.648;23.384;2023-04-25T06:39:40;93725.03;;;13.96;97.53
56052;BME280;41919;42.648;23.384;2023-04-25T06:42:05;93738.22;;;14.72;91.35
56052;BME280;41919;42.648;23.384;2023-04-25T06:44:30;93745.19;;;15.58;87.92
56052;BME280;41919;42.648;23.384;2023-04-25T06:46:56;93749.97;;;16.88;80.69
56052;BME280;41919;42.648;23.384;2023-04-25T06:49:21;93697.31;;;17.73;73.53
56052;BME280;41919;42.648;23.384;2023-04-25T06:51:47;93727.84;;;18.26;70.09
56052;BME280;41919;42.648;23.384;2023-04-25T06:54:13;93736.06;;;18.19;67.58
56052;BME280;41919;42.648;23.384;2023-04-25T06:56:38;93746.75;;;17.78;69.00
56052;BME280;41919;42.648;23.384;2023-04-25T06:59:04;93702.44;;;17.23;69.50
56052;BME280;41919;42.648;23.384;2023-04-25T07:01:29;93750.47;;;17.46;70.03
56052;BME280;41919;42.648;23.384;2023-04-25T07:03:55;93735.97;;;17.33;68.84
56052;BME280;41919;42.648;23.384;2023-04-25T07:06:20;93743.66;;;17.30;71.06
56052;BME280;41919;42.648;23.384;2023-04-25T07:08:46;93739.41;;;17.08;71.04
56052;BME280;41919;42.648;23.384;2023-04-25T07:11:11;93751.97;;;16.50;75.24
56052;BME280;41919;42.648;23.384;2023-04-25T07:13:37;93740.34;;;16.40;76.72
56052;BME280;41919;42.648;23.384;2023-04-25T07:16:02;93654.00;;;16.05;75.83
56052;BME280;41919;42.648;23.384;2023-04-25T07:18:28;93725.72;;;16.12;76.97
56052;BME280;41919;42.648;23.384;2023-04-25T07:20:54;93688.63;;;15.66;78.62
56052;BME280;41919;42.648;23.384;2023-04-25T07:23:20;93687.72;;;15.40;81.25
56052;BME280;41919;42.648;23.384;2023-04-25T07:25:45;93732.25;;;15.14;82.97
56052;BME280;41919;42.648;23.384;2023-04-25T07:28:11;93743.03;;;15.13;80.79
56052;BME280;41919;42.648;23.384;2023-04-25T07:30:37;93734.41;;;15.17;83.00
56052;BME280;41919;42.648;23.384;2023-04-25T07:33:02;93685.16;;;15.13;81.73
56052;BME280;41919;42.648;23.384;2023-04-25T07:35:28;93741.28;;;15.66;81.39
56052;BME280;41919;42.648;23.384;2023-04-25T07:37:53;93685.09;;;15.45;80.25
56052;BME280;41919;42.648;23.384;2023-04-25T07:40:18;93718.22;;;15.83;78.56
56052;BME280;41919;42.648;23.384;2023-04-25T07:42:44;93732.81;;;16.01;77.92
56052;BME280;41919;42.648;23.384;2023-04-25T07:45:10;93689.50;;;15.82;77.30
56052;BME280;41919;42.648;23.384;2023-04-25T07:47:35;93721.47;;;16.01;78.18
56052;BME280;41919;42.648;23.384;2023-04-25T07:50:02;93703.75;;;15.81;80.83
56052;BME280;41919;42.648;23.384;2023-04-25T07:52:28;93725.28;;;15.73;82.12
56052;BME280;41919;42.648;23.384;2023-04-25T07:54:53;93666.75;;;15.65;81.93
56052;BME280;41919;42.648;23.384;2023-04-25T07:57:19;93715.41;;;16.00;82.84
56052;BME280;41919;42.648;23.384;2023-04-25T07:59:45;93670.94;;;15.56;81.20
56052;BME280;41919;42.648;23.384;2023-04-25T08:02:10;93695.88;;;15.86;80.95
56052;BME280;41919;42.648;23.384;2023-04-25T08:04:36;93676.69;;;16.06;78.92
56052;BME280;41919;42.648;23.384;2023-04-25T08:07:01;93679.13;;;16.23;77.10
56052;BME280;41919;42.648;23.384;2023-04-25T08:09:27;93650.66;;;16.30;77.50
56052;BME280;41919;42.648;23.384;2023-04-25T08:11:53;93718.81;;;17.15;74.79
56052;BME280;41919;42.648;23.384;2023-04-25T08:14:18;93688.63;;;17.68;74.73
56052;BME280;41919;42.648;23.384;2023-04-25T08:16:44;93663.75;;;17.79;72.79
56052;BME280;41919;42.648;23.384;2023-04-25T08:19:10;93715.44;;;18.21;70.86
56052;BME280;41919;42.648;23.384;2023-04-25T08:21:36;93693.09;;;18.42;68.88
56052;BME280;41919;42.648;23.384;2023-04-25T08:24:01;93680.81;;;19.31;64.55
56052;BME280;41919;42.648;23.384;2023-04-25T08:26:28;93705.56;;;20.47;61.44
56052;BME280;41919;42.648;23.384;2023-04-25T08:28:53;93666.81;;;19.84;60.51
56052;BME280;41919;42.648;23.384;2023-04-25T08:31:19;93705.50;;;20.09;60.21
56052;BME280;41919;42.648;23.384;2023-04-25T08:33:44;93635.28;;;19.29;61.49
56052;BME280;41919;42.648;23.384;2023-04-25T08:36:10;93698.81;;;19.05;63.73
56052;BME280;41919;42.648;23.384;2023-04-25T08:38:36;93643.13;;;18.80;64.79
56052;BME280;41919;42.648;23.384;2023-04-25T08:41:02;93660.66;;;19.06;64.07
56052;BME280;41919;42.648;23.384;2023-04-25T08:43:29;93638.78;;;19.24;61.75
56052;BME280;41919;42.648;23.384;2023-04-25T08:45:59;93677.06;;;19.08;61.50
56052;BME280;41919;42.648;23.384;2023-04-25T08:48:28;93700.59;;;19.14;63.17
56052;BME280;41919;42.648;23.384;2023-04-25T08:50:57;93649.88;;;19.26;62.36
56052;BME280;41919;42.648;23.384;2023-04-25T08:53:29;93697.16;;;19.72;64.75
56052;BME280;41919;42.648;23.384;2023-04-25T08:55:57;93638.47;;;19.55;61.67
56052;BME280;41919;42.648;23.384;2023-04-25T08:58:23;93664.59;;;20.34;56.30
56052;BME280;41919;42.648;23.384;2023-04-25T09:00:49;93648.03;;;20.80;52.52
56052;BME280;41919;42.648;23.384;2023-04-25T09:03:15;93693.22;;;21.46;51.38
56052;BME280;41919;42.648;23.384;2023-04-25T09:05:41;93652.09;;;21.71;46.52
56052;BME280;41919;42.648;23.384;2023-04-25T09:08:07;93657.13;;;21.40;50.21
56052;BME280;41919;42.648;23.384;2023-04-25T09:10:33;93662.16;;;21.41;51.64
56052;BME280;41919;42.648;23.384;2023-04-25T09:13:25;93680.03;;;21.54;49.64
56052;BME280;41919;42.648;23.384;2023-04-25T09:15:53;93587.06;;;20.75;50.83
56052;BME280;41919;42.648;23.384;2023-04-25T09:20:48;93681.81;;;19.93;54.39
56052;BME280;41919;42.648;23.384;2023-04-25T09:23:14;93674.03;;;20.02;52.67
56052;BME280;41919;42.648;23.384;2023-04-25T09:25:40;93668.44;;;19.80;53.42
56052;BME280;41919;42.648;23.384;2023-04-25T09:28:07;93615.84;;;19.14;55.87
56052;BME280;41919;42.648;23.384;2023-04-25T09:30:34;93607.94;;;19.09;54.53
56052;BME280;41919;42.648;23.384;2023-04-25T09:33:08;93663.38;;;19.30;55.16
56052;BME280;41919;42.648;23.384;2023-04-25T09:35:39;93670.13;;;18.77;56.80
56052;BME280;41919;42.648;23.384;2023-04-25T09:38:14;93592.25;;;18.15;58.13
56052;BME280;41919;42.648;23.384;2023-04-25T09:40:46;93669.69;;;18.60;58.31
56052;BME280;41919;42.648;23.384;2023-04-25T09:43:25;93561.47;;;17.85;57.47
56052;BME280;41919;42.648;23.384;2023-04-25T09:45:52;93612.91;;;18.08;59.99
56052;BME280;41919;42.648;23.384;2023-04-25T09:48:19;93669.94;;;18.19;63.47
56052;BME280;41919;42.648;23.384;2023-04-25T09:51:08;93666.97;;;17.71;63.45
56052;BME280;41919;42.648;23.384;2023-04-25T09:53:34;93671.22;;;17.56;65.17
56052;BME280;41919;42.648;23.384;2023-04-25T09:56:03;93666.03;;;17.20;66.32
56052;BME280;41919;42.648;23.384;2023-04-25T09:58:30;93662.63;;;16.99;66.70
56052;BME280;41919;42.648;23.384;2023-04-25T10:01:01;93668.66;;;16.59;64.49
56052;BME280;41919;42.648;23.384;2023-04-25T10:03:30;93618.66;;;15.85;66.21
56052;BME280;41919;42.648;23.384;2023-04-25T10:05:59;93621.53;;;15.74;67.92
56052;BME280;41919;42.648;23.384;2023-04-25T10:08:26;93670.03;;;15.83;70.62
56052;BME280;41919;42.648;23.384;2023-04-25T10:10:54;93662.44;;;15.92;70.53
56052;BME280;41919;42.648;23.384;2023-04-25T10:13:20;93599.94;;;15.77;66.78
56052;BME280;41919;42.648;23.384;2023-04-25T10:15:46;93648.56;;;16.32;65.57
56052;BME280;41919;42.648;23.384;2023-04-25T10:18:12;93662.81;;;16.62;64.17
56052;BME280;41919;42.648;23.384;2023-04-25T10:20:38;93639.09;;;16.67;62.48
56052;BME280;41919;42.648;23.384;2023-04-25T10:23:11;93647.03;;;16.98;60.37
56052;BME280;41919;42.648;23.384;2023-04-25T10:25:38;93667.84;;;17.30;60.30
56052;BME280;41919;42.648;23.384;2023-04-25T10:28:05;93620.66;;;16.98;65.83
56052;BME280;41919;42.648;23.384;2023-04-25T10:30:31;93674.47;;;17.07;59.11
56052;BME280;41919;42.648;23.384;2023-04-25T10:32:58;93595.84;;;16.42;65.55
56052;BME280;41919;42.648;23.384;2023-04-25T10:35:28;93641.22;;;16.65;69.09
56052;BME280;41919;42.648;23.384;2023-04-25T10:38:05;93645.97;;;16.89;66.65
56052;BME280;41919;42.648;23.384;2023-04-25T10:40:32;93640.13;;;17.12;71.60
56052;BME280;41919;42.648;23.384;2023-04-25T10:49:00;93613.22;;;17.10;65.85
56052;BME280;41919;42.648;23.384;2023-04-25T10:51:33;93648.59;;;17.14;65.75
56052;BME280;41919;42.648;23.384;2023-04-25T10:54:02;93666.56;;;16.92;66.74
56052;BME280;41919;42.648;23.384;2023-04-25T10:56:30;93654.41;;;16.80;69.08
56052;BME280;41919;42.648;23.384;2023-04-25T10:59:23;93671.84;;;16.92;62.95
56052;BME280;41919;42.648;23.384;2023-04-25T11:01:53;93629.28;;;16.21;65.44
56052;BME280;41919;42.648;23.384;2023-04-25T11:04:23;93632.06;;;15.74;64.99
56052;BME280;41919;42.648;23.384;2023-04-25T11:09:24;93640.31;;;15.98;65.53
56052;BME280;41919;42.648;23.384;2023-04-25T11:11:57;93659.59;;;16.24;65.54
56052;BME280;41919;42.648;23.384;2023-04-25T11:14:23;93656.97;;;16.24;64.46
56052;BME280;41919;42.648;23.384;2023-04-25T11:16:55;93565.47;;;15.88;65.66
56052;BME280;41919;42.648;23.384;2023-04-25T11:19:22;93658.88;;;16.54;63.92
56052;BME280;41919;42.648;23.384;2023-04-25T11:21:47;93651.75;;;16.70;61.15
56052;BME280;41919;42.648;23.384;2023-04-25T11:24:13;93595.84;;;16.63;62.85
56052;BME280;41919;42.648;23.384;2023-04-25T11:26:41;93592.69;;;16.92;58.53
56052;BME280;41919;42.648;23.384;2023-04-25T11:29:07;93587.91;;;17.09;59.16
56052;BME280;41919;42.648;23.384;2023-04-25T11:31:32;93650.13;;;17.41;60.42
56052;BME280;41919;42.648;23.384;2023-04-25T11:33:57;93584.25;;;16.90;60.23
56052;BME280;41919;42.648;23.384;2023-04-25T11:36:24;93627.47;;;17.14;57.41
56052;BME280;41919;42.648;23.384;2023-04-25T11:38:51;93582.13;;;16.61;60.21
56052;BME280;41919;42.648;23.384;2023-04-25T11:41:18;93587.91;;;16.42;62.54
56052;BME280;41919;42.648;23.384;2023-04-25T11:43:44;93648.31;;;16.59;64.32
56052;BME280;41919;42.648;23.384;2023-04-25T11:46:09;93612.19;;;16.34;67.01
56052;BME280;41919;42.648;23.384;2023-04-25T11:48:39;93603.47;;;16.23;67.36
56052;BME280;41919;42.648;23.384;2023-04-25T11:51:05;93651.47;;;16.41;69.13
56052;BME280;41919;42.648;23.384;2023-04-25T11:53:30;93623.66;;;15.82;73.16
56052;BME280;41919;42.648;23.384;2023-04-25T11:55:56;93669.28;;;16.03;75.52
56052;BME280;41919;42.648;23.384;2023-04-25T11:58:21;93650.03;;;15.92;77.18
56052;BME280;41919;42.648;23.384;2023-04-25T12:00:46;93654.19;;;15.78;74.41
56052;BME280;41919;42.648;23.384;2023-04-25T12:03:12;93650.69;;;15.62;72.91
56052;BME280;41919;42.648;23.384;2023-04-25T12:05:37;93652.34;;;15.25;76.32
56052;BME280;41919;42.648;23.384;2023-04-25T12:10:41;93591.22;;;13.84;73.49
56052;BME280;41919;42.648;23.384;2023-04-25T12:13:25;93644.53;;;14.06;77.16
56052;BME280;41919;42.648;23.384;2023-04-25T12:15:51;93641.97;;;14.17;80.48
56052;BME280;41919;42.648;23.384;2023-04-25T12:18:20;93633.84;;;13.91;72.42
56052;BME280;41919;42.648;23.384;2023-04-25T12:20:46;93562.63;;;13.38;76.70
56052;BME280;41919;42.648;23.384;2023-04-25T12:23:12;93630.44;;;13.68;77.38
56052;BME280;41919;42.648;23.384;2023-04-25T12:33:35;93595.06;;;13.10;82.58
56052;BME280;41919;42.648;23.384;2023-04-25T12:36:01;93620.06;;;13.34;86.78
56052;BME280;41919;42.648;23.384;2023-04-25T12:38:36;93615.16;;;13.21;82.82
56052;BME280;41919;42.648;23.384;2023-04-25T12:41:02;93608.00;;;13.33;83.94
56052;BME280;41919;42.648;23.384;2023-04-25T12:43:28;93600.06;;;13.50;89.67
56052;BME280;41919;42.648;23.384;2023-04-25T12:45:54;93660.28;;;14.06;88.05
56052;BME280;41919;42.648;23.384;2023-04-25T12:48:21;93620.88;;;14.06;80.01
56052;BME280;41919;42.648;23.384;2023-04-25T12:50:47;93651.81;;;14.54;75.52
56052;BME280;41919;42.648;23.384;2023-04-25T12:53:17;93613.75;;;14.29;77.08
56052;BME280;41919;42.648;23.384;2023-04-25T12:55:43;93673.31;;;14.78;77.08
56052;BME280;41919;42.648;23.384;2023-04-25T12:58:11;93645.97;;;14.51;76.36
56052;BME280;41919;42.648;23.384;2023-04-25T13:00:36;93680.88;;;14.69;77.89
56052;BME280;41919;42.648;23.384;2023-04-25T13:03:02;93632.16;;;14.34;76.77